Flight Track Log - Related Links

Times and Time Zones

All times are in EDT time to prevent confusion due to time zone crossing. See the CTL312 flight status page for this flight to view local times or setup timezone preferences in your user account.

Time Position Orientation Groundspeed Altitude Reporting Facility
EDT Latitude Longitude Course Direction KTS MPH feet Rate Location/Type
Wed 09:45:57 PM 41.5125 -81.6978 314° West 118 136 1,000  Level Cleveland Center
Wed 09:46:21 PM 41.5208 -81.7092 314° West 138 159 1,400 857 Climbing Cleveland Center
Wed 09:47:21 PM 41.5475 -81.7428 317° Northwest 139 160 2,200 756 Climbing Cleveland Center
Wed 09:48:28 PM 41.5636 -81.7986 291° West 139 160 3,000 750 Climbing Cleveland Center
Wed 09:49:29 PM 41.5819 -81.8433 299° West 138 159 3,800 694 Climbing Cleveland Center
Wed 09:50:29 PM 41.6003 -81.8881 299° West 140 161 4,400 678 Climbing Cleveland Center
Wed 09:51:24 PM 41.6142 -81.9331 292° West 140 161 5,100 678 Climbing Cleveland Center
Wed 09:52:24 PM 41.6303 -81.9806 294° West 139 160 5,700 496 Climbing Cleveland Center
Wed 09:53:25 PM 41.6444 -82.0308 291° West 143 165 6,100 109 Climbing Cleveland Center
Wed 09:54:14 PM 41.6583 -82.0783 291° West 159 183 5,900 -110 Descending Cleveland Center
Wed 09:55:14 PM 41.6722 -82.1314 289° West 157 181 5,900 47 Level Cleveland Center
Wed 09:56:21 PM 41.6925 -82.1819 298° West 155 178 6,000  Climbing Cleveland Center
Wed 09:57:21 PM 41.7125 -82.2356 297° West 150 173 5,900 -55 Descending Cleveland Center
Wed 09:58:11 PM 41.7286 -82.2775 297° West 148 170 5,900  Level Cleveland Center
Wed 09:58:48 PM 41.7364 -82.3111 287° West 149 171 5,900  Level Cleveland Center
Wed 09:59:49 PM 41.7564 -82.3647 297° West 152 175 5,900  Level Cleveland Center
Wed 10:01:08 PM 41.7761 -82.4292 292° West 152 175 5,900  Level Cleveland Center
Wed 10:01:50 PM 41.7903 -82.4631 299° West 149 171 5,900  Level Cleveland Center
Wed 10:03:03 PM 41.8122 -82.5278 294° West 150 173 5,900 -45 Level Cleveland Center
Wed 10:04:04 PM 41.8300 -82.5783 295° West 151 174 5,800 -50 Descending Cleveland Center
Wed 10:05:04 PM 41.8586 -82.6156 316° Northwest 166 191 5,800  Level Cleveland Center
Wed 10:05:47 PM 41.8917 -82.6333 338° Northwest 164 189 5,800 55 Level Cleveland Center
Wed 10:06:54 PM 41.9372 -82.6517 343° North 161 185 5,900 45 Climbing Cleveland Center
Wed 10:08:01 PM 41.9825 -82.6781 337° Northwest 155 178 5,900  Level Cleveland Center
Wed 10:09:02 PM 42.0258 -82.7019 338° Northwest 162 186 5,900  Level Cleveland Center
Wed 10:10:08 PM 42.0714 -82.7231 341° North 160 184 5,900 -47 Level Cleveland Center
Wed 10:11:09 PM 42.1125 -82.7469 337° Northwest 157 181 5,800 52 Descending Cleveland Center
Wed 10:12:04 PM 42.1456 -82.7647 338° Northwest 155 178 6,000 103 Climbing Cleveland Center
Wed 10:13:05 PM 42.1911 -82.7803 346° North 154 177 6,000  Level Cleveland Center
Wed 10:14:00 PM 42.2242 -82.7983 338° Northwest 154 177 6,000  Level Cleveland Center
Wed 10:15:01 PM 42.2653 -82.8278 332° Northwest 153 176 6,000 50 Level Cleveland Center
Wed 10:16:01 PM 42.2978 -82.8656 319° Northwest 153 176 6,100 -345 Climbing Cleveland Center
Wed 10:17:20 PM 42.3428 -82.9147 321° Northwest 165 190 5,200 -806 Descending Cleveland Center
Wed 10:18:15 PM 42.3775 -82.9528 321° Northwest 175 201 4,300 -545 Descending Cleveland Center
Wed 10:19:21 PM 42.4183 -82.9908 325° Northwest 163 188 4,100 -104 Descending Cleveland Center
Wed 10:20:10 PM 42.4406 -83.0225 314° West 145 167 4,100 -115 Level Cleveland Center
Wed 10:21:05 PM 42.4731 -83.0603 319° Northwest 151 174 3,900 -281 Descending Cleveland Center
Wed 10:22:18 PM 42.5033 -83.1122 308° West 154 177 3,500 -209 Descending Cleveland Center
Wed 10:23:00 PM 42.5214 -83.1439 308° West 148 170 3,500 -117 Level Cleveland Center
Wed 10:24:01 PM 42.5475 -83.1872 309° West 146 168 3,300 -226 Descending Cleveland Center
Wed 10:25:13 PM 42.5794 -83.2422 308° West 153 176 3,000 -271 Descending Cleveland Center
Wed 10:26:14 PM 42.6014 -83.2856 305° West 145 167 2,700 -403 Descending Cleveland Center
Wed 10:27:27 PM 42.6317 -83.3347 310° West 139 160 2,100 -375 Descending Cleveland Center
Wed 10:28:22 PM 42.6514 -83.3722 306° West 132 152 1,900 -385 Descending Cleveland Center
Wed 10:29:16 PM 42.6656 -83.3956 310° West 94 108 1,400 -556 Descending Cleveland Center
Wed 10:31:00 PM 42.6500 -83.4167 304° West  Level FlightAware Approximate
Wed 10:38:00 PM 42.6656 -83.4205 304° West  Level Estimated

Login

Don't have an account? Register now (free) for customized features, flight alerts, and more!